sensor_id;sensor_type;location;lat;lon;timestamp;temperature;humidity
31038;DHT22;17702;47.590;7.666;2024-03-29T00:00:39;10.50;76.50
31038;DHT22;17702;47.590;7.666;2024-03-29T00:03:05;10.50;76.30
31038;DHT22;17702;47.590;7.666;2024-03-29T00:05:32;10.50;77.30
31038;DHT22;17702;47.590;7.666;2024-03-29T00:07:57;10.50;76.90
31038;DHT22;17702;47.590;7.666;2024-03-29T00:10:23;10.50;77.20
31038;DHT22;17702;47.590;7.666;2024-03-29T00:12:49;10.50;77.60
31038;DHT22;17702;47.590;7.666;2024-03-29T00:15:14;10.60;76.80
31038;DHT22;17702;47.590;7.666;2024-03-29T00:17:40;10.60;77.10
31038;DHT22;17702;47.590;7.666;2024-03-29T00:20:06;10.70;76.90
31038;DHT22;17702;47.590;7.666;2024-03-29T00:22:32;10.70;76.50
31038;DHT22;17702;47.590;7.666;2024-03-29T00:24:58;10.70;75.30
31038;DHT22;17702;47.590;7.666;2024-03-29T00:27:23;10.80;76.10
31038;DHT22;17702;47.590;7.666;2024-03-29T00:29:52;10.80;75.60
31038;DHT22;17702;47.590;7.666;2024-03-29T00:32:21;10.80;75.50
31038;DHT22;17702;47.590;7.666;2024-03-29T00:34:50;10.80;74.60
31038;DHT22;17702;47.590;7.666;2024-03-29T00:37:16;10.70;74.60
31038;DHT22;17702;47.590;7.666;2024-03-29T00:39:42;10.70;75.40
31038;DHT22;17702;47.590;7.666;2024-03-29T00:42:08;10.80;74.90
31038;DHT22;17702;47.590;7.666;2024-03-29T00:44:35;10.80;74.20
31038;DHT22;17702;47.590;7.666;2024-03-29T00:47:02;10.80;74.00
31038;DHT22;17702;47.590;7.666;2024-03-29T00:49:28;10.80;73.80
31038;DHT22;17702;47.590;7.666;2024-03-29T00:51:55;10.90;73.10
31038;DHT22;17702;47.590;7.666;2024-03-29T00:54:20;11.00;73.70
31038;DHT22;17702;47.590;7.666;2024-03-29T00:56:46;11.00;73.80
31038;DHT22;17702;47.590;7.666;2024-03-29T00:59:12;11.00;72.90
31038;DHT22;17702;47.590;7.666;2024-03-29T01:01:37;11.00;73.10
31038;DHT22;17702;47.590;7.666;2024-03-29T01:04:04;11.00;73.00
31038;DHT22;17702;47.590;7.666;2024-03-29T01:06:29;11.00;73.00
31038;DHT22;17702;47.590;7.666;2024-03-29T01:08:55;11.00;72.90
31038;DHT22;17702;47.590;7.666;2024-03-29T01:11:20;10.90;72.70
31038;DHT22;17702;47.590;7.666;2024-03-29T01:13:46;10.90;72.60
31038;DHT22;17702;47.590;7.666;2024-03-29T01:16:11;10.90;72.80
31038;DHT22;17702;47.590;7.666;2024-03-29T01:18:37;11.00;72.90
31038;DHT22;17702;47.590;7.666;2024-03-29T01:21:03;11.00;73.30
31038;DHT22;17702;47.590;7.666;2024-03-29T01:23:28;11.00;74.10
31038;DHT22;17702;47.590;7.666;2024-03-29T01:25:54;11.00;72.20
31038;DHT22;17702;47.590;7.666;2024-03-29T01:28:19;11.00;72.90
31038;DHT22;17702;47.590;7.666;2024-03-29T01:30:52;11.00;73.40
31038;DHT22;17702;47.590;7.666;2024-03-29T01:33:18;11.00;72.80
31038;DHT22;17702;47.590;7.666;2024-03-29T01:35:43;11.00;72.80
31038;DHT22;17702;47.590;7.666;2024-03-29T01:38:09;11.00;73.30
31038;DHT22;17702;47.590;7.666;2024-03-29T01:40:34;11.00;72.70
31038;DHT22;17702;47.590;7.666;2024-03-29T01:43:01;10.90;73.00
31038;DHT22;17702;47.590;7.666;2024-03-29T01:45:27;11.00;71.70
31038;DHT22;17702;47.590;7.666;2024-03-29T01:47:53;11.00;71.50
31038;DHT22;17702;47.590;7.666;2024-03-29T01:50:18;11.00;72.00
31038;DHT22;17702;47.590;7.666;2024-03-29T01:52:44;10.90;72.10
31038;DHT22;17702;47.590;7.666;2024-03-29T01:55:10;10.90;71.70
31038;DHT22;17702;47.590;7.666;2024-03-29T01:57:36;10.90;72.20
31038;DHT22;17702;47.590;7.666;2024-03-29T02:00:02;10.90;72.60
31038;DHT22;17702;47.590;7.666;2024-03-29T02:02:31;10.90;71.60
31038;DHT22;17702;47.590;7.666;2024-03-29T02:04:57;10.80;73.00
31038;DHT22;17702;47.590;7.666;2024-03-29T02:07:23;10.80;73.20
31038;DHT22;17702;47.590;7.666;2024-03-29T02:09:49;10.90;72.00
31038;DHT22;17702;47.590;7.666;2024-03-29T02:12:14;11.00;72.50
31038;DHT22;17702;47.590;7.666;2024-03-29T02:14:40;11.00;70.90
31038;DHT22;17702;47.590;7.666;2024-03-29T02:17:08;11.10;71.30
31038;DHT22;17702;47.590;7.666;2024-03-29T02:19:34;11.20;71.10
31038;DHT22;17702;47.590;7.666;2024-03-29T02:22:00;11.20;72.00
31038;DHT22;17702;47.590;7.666;2024-03-29T02:24:27;11.20;71.10
31038;DHT22;17702;47.590;7.666;2024-03-29T02:26:55;11.20;70.80
31038;DHT22;17702;47.590;7.666;2024-03-29T02:29:21;11.10;71.40
31038;DHT22;17702;47.590;7.666;2024-03-29T02:31:47;11.10;71.30
31038;DHT22;17702;47.590;7.666;2024-03-29T02:34:13;11.00;72.10
31038;DHT22;17702;47.590;7.666;2024-03-29T02:36:38;10.90;72.80
31038;DHT22;17702;47.590;7.666;2024-03-29T02:39:04;10.90;73.30
31038;DHT22;17702;47.590;7.666;2024-03-29T02:41:30;10.80;73.10
31038;DHT22;17702;47.590;7.666;2024-03-29T02:43:56;10.80;73.80
31038;DHT22;17702;47.590;7.666;2024-03-29T02:46:23;10.70;73.10
31038;DHT22;17702;47.590;7.666;2024-03-29T02:48:48;10.70;72.60
31038;DHT22;17702;47.590;7.666;2024-03-29T02:51:14;10.70;72.30
31038;DHT22;17702;47.590;7.666;2024-03-29T02:53:40;10.80;73.30
31038;DHT22;17702;47.590;7.666;2024-03-29T02:56:05;10.80;72.50
31038;DHT22;17702;47.590;7.666;2024-03-29T02:58:37;10.80;73.00
31038;DHT22;17702;47.590;7.666;2024-03-29T03:01:09;10.80;73.60
31038;DHT22;17702;47.590;7.666;2024-03-29T03:03:35;10.80;73.20
31038;DHT22;17702;47.590;7.666;2024-03-29T03:06:01;10.80;73.90
31038;DHT22;17702;47.590;7.666;2024-03-29T03:08:28;10.70;73.70
31038;DHT22;17702;47.590;7.666;2024-03-29T03:11:12;10.70;73.10
31038;DHT22;17702;47.590;7.666;2024-03-29T03:13:38;10.60;74.30
31038;DHT22;17702;47.590;7.666;2024-03-29T03:16:04;10.60;74.60
31038;DHT22;17702;47.590;7.666;2024-03-29T03:18:30;10.50;74.00
31038;DHT22;17702;47.590;7.666;2024-03-29T03:20:56;10.50;73.70
31038;DHT22;17702;47.590;7.666;2024-03-29T03:23:25;10.50;73.50
31038;DHT22;17702;47.590;7.666;2024-03-29T03:25:58;10.30;74.10
31038;DHT22;17702;47.590;7.666;2024-03-29T03:28:24;10.30;74.90
31038;DHT22;17702;47.590;7.666;2024-03-29T03:30:51;10.30;74.80
31038;DHT22;17702;47.590;7.666;2024-03-29T03:33:16;10.30;74.40
31038;DHT22;17702;47.590;7.666;2024-03-29T03:35:43;10.30;74.50
31038;DHT22;17702;47.590;7.666;2024-03-29T03:38:09;10.20;74.80
31038;DHT22;17702;47.590;7.666;2024-03-29T03:40:35;10.10;75.40
31038;DHT22;17702;47.590;7.666;2024-03-29T03:43:04;10.10;75.40
31038;DHT22;17702;47.590;7.666;2024-03-29T03:45:38;10.10;76.10
31038;DHT22;17702;47.590;7.666;2024-03-29T03:48:05;10.10;75.60
31038;DHT22;17702;47.590;7.666;2024-03-29T03:50:32;10.00;75.60
31038;DHT22;17702;47.590;7.666;2024-03-29T03:52:57;10.00;75.50
31038;DHT22;17702;47.590;7.666;2024-03-29T03:55:23;10.00;75.90
31038;DHT22;17702;47.590;7.666;2024-03-29T03:57:49;10.10;75.30
31038;DHT22;17702;47.590;7.666;2024-03-29T04:00:15;10.10;74.50
31038;DHT22;17702;47.590;7.666;2024-03-29T04:02:41;10.10;74.50
31038;DHT22;17702;47.590;7.666;2024-03-29T04:05:07;10.10;74.70
31038;DHT22;17702;47.590;7.666;2024-03-29T04:07:33;10.10;74.70
31038;DHT22;17702;47.590;7.666;2024-03-29T04:09:58;10.10;73.90
31038;DHT22;17702;47.590;7.666;2024-03-29T04:12:24;10.20;74.40
31038;DHT22;17702;47.590;7.666;2024-03-29T04:14:49;10.20;74.30
31038;DHT22;17702;47.590;7.666;2024-03-29T04:17:15;10.30;74.00
31038;DHT22;17702;47.590;7.666;2024-03-29T04:19:40;10.40;73.00
31038;DHT22;17702;47.590;7.666;2024-03-29T04:22:06;10.40;72.90
31038;DHT22;17702;47.590;7.666;2024-03-29T04:24:32;10.50;73.90
31038;DHT22;17702;47.590;7.666;2024-03-29T04:26:57;10.50;72.30
31038;DHT22;17702;47.590;7.666;2024-03-29T04:29:23;10.50;72.30
31038;DHT22;17702;47.590;7.666;2024-03-29T04:31:49;10.60;72.10
31038;DHT22;17702;47.590;7.666;2024-03-29T04:34:14;10.50;71.70
31038;DHT22;17702;47.590;7.666;2024-03-29T04:36:40;10.50;72.90
31038;DHT22;17702;47.590;7.666;2024-03-29T04:39:05;10.60;72.20
31038;DHT22;17702;47.590;7.666;2024-03-29T04:41:32;10.60;71.70
31038;DHT22;17702;47.590;7.666;2024-03-29T04:44:02;10.60;71.90
31038;DHT22;17702;47.590;7.666;2024-03-29T04:46:31;10.70;72.10
31038;DHT22;17702;47.590;7.666;2024-03-29T04:48:57;10.70;72.50
31038;DHT22;17702;47.590;7.666;2024-03-29T04:51:23;10.80;71.70
31038;DHT22;17702;47.590;7.666;2024-03-29T04:53:49;10.80;71.50
31038;DHT22;17702;47.590;7.666;2024-03-29T04:56:15;10.90;71.30
31038;DHT22;17702;47.590;7.666;2024-03-29T04:58:41;11.00;71.50
31038;DHT22;17702;47.590;7.666;2024-03-29T05:01:07;10.90;71.40
31038;DHT22;17702;47.590;7.666;2024-03-29T05:03:32;10.90;72.00
31038;DHT22;17702;47.590;7.666;2024-03-29T05:05:58;10.80;72.00
31038;DHT22;17702;47.590;7.666;2024-03-29T05:08:24;10.80;72.50
31038;DHT22;17702;47.590;7.666;2024-03-29T05:10:50;10.80;72.80
31038;DHT22;17702;47.590;7.666;2024-03-29T05:13:17;10.90;71.90
31038;DHT22;17702;47.590;7.666;2024-03-29T05:15:47;10.90;72.20
31038;DHT22;17702;47.590;7.666;2024-03-29T05:18:13;10.90;72.10
31038;DHT22;17702;47.590;7.666;2024-03-29T05:20:39;11.00;72.90
31038;DHT22;17702;47.590;7.666;2024-03-29T05:23:12;11.10;72.50
31038;DHT22;17702;47.590;7.666;2024-03-29T05:25:40;11.10;72.10
31038;DHT22;17702;47.590;7.666;2024-03-29T05:28:05;11.10;73.50
31038;DHT22;17702;47.590;7.666;2024-03-29T05:30:33;11.10;72.80
31038;DHT22;17702;47.590;7.666;2024-03-29T05:32:58;11.00;71.50
31038;DHT22;17702;47.590;7.666;2024-03-29T05:35:24;11.00;71.10
31038;DHT22;17702;47.590;7.666;2024-03-29T05:37:50;10.80;74.00
31038;DHT22;17702;47.590;7.666;2024-03-29T05:40:18;10.80;72.20
31038;DHT22;17702;47.590;7.666;2024-03-29T05:42:44;10.90;71.80
31038;DHT22;17702;47.590;7.666;2024-03-29T05:45:24;10.90;71.90
31038;DHT22;17702;47.590;7.666;2024-03-29T05:47:51;10.90;71.20
31038;DHT22;17702;47.590;7.666;2024-03-29T05:50:17;11.00;70.10
31038;DHT22;17702;47.590;7.666;2024-03-29T05:52:43;11.00;70.40
31038;DHT22;17702;47.590;7.666;2024-03-29T05:55:08;11.10;70.20
31038;DHT22;17702;47.590;7.666;2024-03-29T05:57:35;11.10;70.60
31038;DHT22;17702;47.590;7.666;2024-03-29T06:00:05;11.10;70.40
31038;DHT22;17702;47.590;7.666;2024-03-29T06:02:30;11.20;69.20
31038;DHT22;17702;47.590;7.666;2024-03-29T06:04:56;11.20;69.10
31038;DHT22;17702;47.590;7.666;2024-03-29T06:07:21;11.10;70.00
31038;DHT22;17702;47.590;7.666;2024-03-29T06:09:47;11.10;69.40
31038;DHT22;17702;47.590;7.666;2024-03-29T06:12:13;11.20;68.90
31038;DHT22;17702;47.590;7.666;2024-03-29T06:14:38;11.20;69.00
31038;DHT22;17702;47.590;7.666;2024-03-29T06:17:22;11.20;69.60
31038;DHT22;17702;47.590;7.666;2024-03-29T06:19:49;11.30;68.80
31038;DHT22;17702;47.590;7.666;2024-03-29T06:22:16;11.30;68.00
31038;DHT22;17702;47.590;7.666;2024-03-29T06:24:42;11.30;68.00
31038;DHT22;17702;47.590;7.666;2024-03-29T06:27:10;11.30;68.30
31038;DHT22;17702;47.590;7.666;2024-03-29T06:29:35;11.30;68.20
31038;DHT22;17702;47.590;7.666;2024-03-29T06:32:02;11.40;69.60
31038;DHT22;17702;47.590;7.666;2024-03-29T06:34:31;11.40;67.20
31038;DHT22;17702;47.590;7.666;2024-03-29T06:36:57;11.40;68.50
31038;DHT22;17702;47.590;7.666;2024-03-29T06:39:22;11.40;69.40
31038;DHT22;17702;47.590;7.666;2024-03-29T06:41:48;11.40;69.20
31038;DHT22;17702;47.590;7.666;2024-03-29T06:44:13;11.40;69.20
31038;DHT22;17702;47.590;7.666;2024-03-29T06:46:39;11.30;69.90
31038;DHT22;17702;47.590;7.666;2024-03-29T06:49:05;11.30;69.20
31038;DHT22;17702;47.590;7.666;2024-03-29T06:51:31;11.40;70.30
31038;DHT22;17702;47.590;7.666;2024-03-29T06:53:57;11.30;70.00
31038;DHT22;17702;47.590;7.666;2024-03-29T06:56:22;11.30;70.10
31038;DHT22;17702;47.590;7.666;2024-03-29T06:58:48;11.20;70.00
31038;DHT22;17702;47.590;7.666;2024-03-29T07:01:13;11.20;70.80
31038;DHT22;17702;47.590;7.666;2024-03-29T07:03:40;11.10;70.20
31038;DHT22;17702;47.590;7.666;2024-03-29T07:06:06;11.20;71.20
31038;DHT22;17702;47.590;7.666;2024-03-29T07:08:31;11.20;70.10
31038;DHT22;17702;47.590;7.666;2024-03-29T07:10:58;11.20;70.00
31038;DHT22;17702;47.590;7.666;2024-03-29T07:13:24;11.20;69.90
31038;DHT22;17702;47.590;7.666;2024-03-29T07:15:53;11.20;70.40
31038;DHT22;17702;47.590;7.666;2024-03-29T07:18:19;11.20;70.60
31038;DHT22;17702;47.590;7.666;2024-03-29T07:20:44;11.20;70.50
31038;DHT22;17702;47.590;7.666;2024-03-29T07:23:10;11.20;70.90
31038;DHT22;17702;47.590;7.666;2024-03-29T07:25:37;11.30;70.90
31038;DHT22;17702;47.590;7.666;2024-03-29T07:28:02;11.40;71.10
31038;DHT22;17702;47.590;7.666;2024-03-29T07:30:28;11.30;69.20
31038;DHT22;17702;47.590;7.666;2024-03-29T07:32:54;11.30;70.20
31038;DHT22;17702;47.590;7.666;2024-03-29T07:35:19;11.40;70.20
31038;DHT22;17702;47.590;7.666;2024-03-29T07:37:45;11.40;69.10
31038;DHT22;17702;47.590;7.666;2024-03-29T07:40:16;11.50;69.10
31038;DHT22;17702;47.590;7.666;2024-03-29T07:42:41;11.60;69.70
31038;DHT22;17702;47.590;7.666;2024-03-29T07:45:07;11.60;69.20
31038;DHT22;17702;47.590;7.666;2024-03-29T07:47:33;11.60;69.90
31038;DHT22;17702;47.590;7.666;2024-03-29T07:49:59;11.60;70.30
31038;DHT22;17702;47.590;7.666;2024-03-29T07:52:24;11.60;70.90
31038;DHT22;17702;47.590;7.666;2024-03-29T07:54:50;11.60;71.40
31038;DHT22;17702;47.590;7.666;2024-03-29T07:57:16;11.70;72.80
31038;DHT22;17702;47.590;7.666;2024-03-29T07:59:43;11.70;76.40
31038;DHT22;17702;47.590;7.666;2024-03-29T08:02:08;11.70;75.30
31038;DHT22;17702;47.590;7.666;2024-03-29T08:04:34;11.70;74.40
31038;DHT22;17702;47.590;7.666;2024-03-29T08:07:00;11.80;74.50
31038;DHT22;17702;47.590;7.666;2024-03-29T08:09:26;11.80;74.60
31038;DHT22;17702;47.590;7.666;2024-03-29T08:11:51;11.80;79.60
31038;DHT22;17702;47.590;7.666;2024-03-29T08:14:17;11.80;78.30
31038;DHT22;17702;47.590;7.666;2024-03-29T08:16:43;11.90;80.20
31038;DHT22;17702;47.590;7.666;2024-03-29T08:19:09;11.90;77.90
31038;DHT22;17702;47.590;7.666;2024-03-29T08:21:34;11.70;78.00
31038;DHT22;17702;47.590;7.666;2024-03-29T08:24:01;11.70;80.30
31038;DHT22;17702;47.590;7.666;2024-03-29T08:26:27;11.70;75.60
31038;DHT22;17702;47.590;7.666;2024-03-29T08:28:56;11.80;74.60
31038;DHT22;17702;47.590;7.666;2024-03-29T08:31:21;11.90;73.60
31038;DHT22;17702;47.590;7.666;2024-03-29T08:33:47;11.90;73.90
31038;DHT22;17702;47.590;7.666;2024-03-29T08:36:13;12.00;77.10
31038;DHT22;17702;47.590;7.666;2024-03-29T08:38:39;12.10;75.00
31038;DHT22;17702;47.590;7.666;2024-03-29T08:41:08;12.20;76.30
31038;DHT22;17702;47.590;7.666;2024-03-29T08:43:34;12.20;77.90
31038;DHT22;17702;47.590;7.666;2024-03-29T08:45:59;12.30;79.90
31038;DHT22;17702;47.590;7.666;2024-03-29T08:48:26;12.30;75.10
31038;DHT22;17702;47.590;7.666;2024-03-29T08:50:52;12.40;76.90
31038;DHT22;17702;47.590;7.666;2024-03-29T08:53:18;12.40;74.90
31038;DHT22;17702;47.590;7.666;2024-03-29T08:55:46;12.50;75.50
31038;DHT22;17702;47.590;7.666;2024-03-29T08:58:12;12.50;74.50
31038;DHT22;17702;47.590;7.666;2024-03-29T09:00:37;12.50;74.30
31038;DHT22;17702;47.590;7.666;2024-03-29T09:03:03;12.40;73.90
31038;DHT22;17702;47.590;7.666;2024-03-29T09:05:29;12.40;74.50
31038;DHT22;17702;47.590;7.666;2024-03-29T09:07:55;12.40;80.80
31038;DHT22;17702;47.590;7.666;2024-03-29T09:10:25;12.30;80.10
31038;DHT22;17702;47.590;7.666;2024-03-29T09:12:52;12.30;78.70
31038;DHT22;17702;47.590;7.666;2024-03-29T09:15:18;12.40;78.80
31038;DHT22;17702;47.590;7.666;2024-03-29T09:17:44;12.50;78.70
31038;DHT22;17702;47.590;7.666;2024-03-29T09:20:11;12.30;73.90
31038;DHT22;17702;47.590;7.666;2024-03-29T09:22:37;12.30;71.30
31038;DHT22;17702;47.590;7.666;2024-03-29T09:25:04;12.50;77.00
31038;DHT22;17702;47.590;7.666;2024-03-29T09:27:29;12.60;76.00
31038;DHT22;17702;47.590;7.666;2024-03-29T09:29:55;12.70;76.00
31038;DHT22;17702;47.590;7.666;2024-03-29T09:32:22;12.70;73.70
31038;DHT22;17702;47.590;7.666;2024-03-29T09:34:48;12.70;70.50
31038;DHT22;17702;47.590;7.666;2024-03-29T09:37:14;12.80;72.90
31038;DHT22;17702;47.590;7.666;2024-03-29T09:39:40;12.90;72.70
31038;DHT22;17702;47.590;7.666;2024-03-29T09:42:06;13.00;71.50
31038;DHT22;17702;47.590;7.666;2024-03-29T09:44:33;13.00;73.20
31038;DHT22;17702;47.590;7.666;2024-03-29T09:47:05;13.00;74.00
31038;DHT22;17702;47.590;7.666;2024-03-29T09:49:32;13.10;76.50
31038;DHT22;17702;47.590;7.666;2024-03-29T09:52:01;13.20;80.00
31038;DHT22;17702;47.590;7.666;2024-03-29T09:54:29;13.20;72.50
31038;DHT22;17702;47.590;7.666;2024-03-29T09:56:56;13.20;72.80
31038;DHT22;17702;47.590;7.666;2024-03-29T09:59:23;13.30;72.50
31038;DHT22;17702;47.590;7.666;2024-03-29T10:01:49;13.30;70.30
31038;DHT22;17702;47.590;7.666;2024-03-29T10:04:16;13.30;71.00
31038;DHT22;17702;47.590;7.666;2024-03-29T10:06:45;13.30;71.50
31038;DHT22;17702;47.590;7.666;2024-03-29T10:09:12;13.40;72.60
31038;DHT22;17702;47.590;7.666;2024-03-29T10:11:38;13.40;72.00
31038;DHT22;17702;47.590;7.666;2024-03-29T10:14:04;13.50;73.70
31038;DHT22;17702;47.590;7.666;2024-03-29T10:16:30;13.50;73.70
31038;DHT22;17702;47.590;7.666;2024-03-29T10:18:58;13.50;74.60
31038;DHT22;17702;47.590;7.666;2024-03-29T10:21:27;13.60;74.20
31038;DHT22;17702;47.590;7.666;2024-03-29T10:23:53;13.70;73.30
31038;DHT22;17702;47.590;7.666;2024-03-29T10:26:19;13.80;74.80
31038;DHT22;17702;47.590;7.666;2024-03-29T10:28:47;13.90;74.00
31038;DHT22;17702;47.590;7.666;2024-03-29T10:31:12;14.00;74.90
31038;DHT22;17702;47.590;7.666;2024-03-29T10:33:41;14.10;71.20
31038;DHT22;17702;47.590;7.666;2024-03-29T10:36:07;14.10;71.50
31038;DHT22;17702;47.590;7.666;2024-03-29T10:38:35;14.20;71.70
31038;DHT22;17702;47.590;7.666;2024-03-29T10:41:01;14.30;68.60
31038;DHT22;17702;47.590;7.666;2024-03-29T10:43:29;14.40;70.10
31038;DHT22;17702;47.590;7.666;2024-03-29T10:45:55;14.50;72.00
31038;DHT22;17702;47.590;7.666;2024-03-29T10:48:28;14.60;71.40
31038;DHT22;17702;47.590;7.666;2024-03-29T10:50:55;14.70;67.40
31038;DHT22;17702;47.590;7.666;2024-03-29T10:53:24;14.70;68.00
31038;DHT22;17702;47.590;7.666;2024-03-29T10:56:02;14.80;69.00
31038;DHT22;17702;47.590;7.666;2024-03-29T10:58:35;14.90;68.10
31038;DHT22;17702;47.590;7.666;2024-03-29T11:01:04;15.00;66.40
31038;DHT22;17702;47.590;7.666;2024-03-29T11:03:49;15.00;67.10
31038;DHT22;17702;47.590;7.666;2024-03-29T11:06:16;15.00;65.60
31038;DHT22;17702;47.590;7.666;2024-03-29T11:08:44;15.00;64.90
31038;DHT22;17702;47.590;7.666;2024-03-29T11:11:13;14.90;66.20
31038;DHT22;17702;47.590;7.666;2024-03-29T11:14:13;14.80;68.20
31038;DHT22;17702;47.590;7.666;2024-03-29T11:16:40;14.80;66.60
31038;DHT22;17702;47.590;7.666;2024-03-29T11:19:12;14.90;64.80
31038;DHT22;17702;47.590;7.666;2024-03-29T11:21:39;15.00;66.00
31038;DHT22;17702;47.590;7.666;2024-03-29T11:24:08;15.20;64.20
31038;DHT22;17702;47.590;7.666;2024-03-29T11:26:34;15.30;64.50
31038;DHT22;17702;47.590;7.666;2024-03-29T11:29:00;15.60;65.20
31038;DHT22;17702;47.590;7.666;2024-03-29T11:31:27;15.80;65.00
31038;DHT22;17702;47.590;7.666;2024-03-29T11:33:57;16.00;64.80
31038;DHT22;17702;47.590;7.666;2024-03-29T11:36:28;16.20;64.50
31038;DHT22;17702;47.590;7.666;2024-03-29T11:38:57;16.50;61.40
31038;DHT22;17702;47.590;7.666;2024-03-29T11:41:27;16.70;59.20
31038;DHT22;17702;47.590;7.666;2024-03-29T11:43:54;16.80;57.40
31038;DHT22;17702;47.590;7.666;2024-03-29T11:46:20;16.90;57.10
31038;DHT22;17702;47.590;7.666;2024-03-29T11:48:46;17.00;55.40
31038;DHT22;17702;47.590;7.666;2024-03-29T11:51:16;17.00;56.50
31038;DHT22;17702;47.590;7.666;2024-03-29T11:53:42;17.20;56.30
31038;DHT22;17702;47.590;7.666;2024-03-29T11:56:08;17.40;55.80
31038;DHT22;17702;47.590;7.666;2024-03-29T11:58:34;17.60;54.60
31038;DHT22;17702;47.590;7.666;2024-03-29T12:01:01;17.70;56.00
31038;DHT22;17702;47.590;7.666;2024-03-29T12:03:29;17.90;54.10
31038;DHT22;17702;47.590;7.666;2024-03-29T12:05:56;18.10;54.00
31038;DHT22;17702;47.590;7.666;2024-03-29T12:08:48;18.30;53.60
31038;DHT22;17702;47.590;7.666;2024-03-29T12:11:15;18.50;52.50
31038;DHT22;17702;47.590;7.666;2024-03-29T12:13:41;18.70;54.70
31038;DHT22;17702;47.590;7.666;2024-03-29T12:16:07;18.90;52.90
31038;DHT22;17702;47.590;7.666;2024-03-29T12:18:33;19.10;55.00
31038;DHT22;17702;47.590;7.666;2024-03-29T12:20:59;19.20;54.50
31038;DHT22;17702;47.590;7.666;2024-03-29T12:23:25;19.50;53.20
31038;DHT22;17702;47.590;7.666;2024-03-29T12:25:54;19.60;50.60
31038;DHT22;17702;47.590;7.666;2024-03-29T12:28:24;19.80;53.30
31038;DHT22;17702;47.590;7.666;2024-03-29T12:30:50;20.10;48.50
31038;DHT22;17702;47.590;7.666;2024-03-29T12:33:18;20.30;47.00
31038;DHT22;17702;47.590;7.666;2024-03-29T12:35:50;20.60;47.40
31038;DHT22;17702;47.590;7.666;2024-03-29T12:38:18;20.80;48.20
31038;DHT22;17702;47.590;7.666;2024-03-29T12:40:46;21.00;48.20
31038;DHT22;17702;47.590;7.666;2024-03-29T12:43:13;21.10;46.10
31038;DHT22;17702;47.590;7.666;2024-03-29T12:45:41;21.30;46.00
31038;DHT22;17702;47.590;7.666;2024-03-29T12:48:17;21.40;45.60
31038;DHT22;17702;47.590;7.666;2024-03-29T12:50:45;21.60;45.80
31038;DHT22;17702;47.590;7.666;2024-03-29T12:53:12;21.60;44.40
31038;DHT22;17702;47.590;7.666;2024-03-29T12:55:40;21.70;46.10
31038;DHT22;17702;47.590;7.666;2024-03-29T12:58:09;21.90;45.00
31038;DHT22;17702;47.590;7.666;2024-03-29T13:00:39;22.20;44.10
31038;DHT22;17702;47.590;7.666;2024-03-29T13:03:05;22.30;45.10
31038;DHT22;17702;47.590;7.666;2024-03-29T13:05:31;22.50;46.20
31038;DHT22;17702;47.590;7.666;2024-03-29T13:08:04;22.70;48.20
31038;DHT22;17702;47.590;7.666;2024-03-29T13:10:31;22.80;45.60
31038;DHT22;17702;47.590;7.666;2024-03-29T13:12:56;23.00;45.50
31038;DHT22;17702;47.590;7.666;2024-03-29T13:15:23;23.10;49.90
31038;DHT22;17702;47.590;7.666;2024-03-29T13:17:51;23.10;51.80
31038;DHT22;17702;47.590;7.666;2024-03-29T13:20:17;23.10;54.10
31038;DHT22;17702;47.590;7.666;2024-03-29T13:22:44;23.20;54.20
31038;DHT22;17702;47.590;7.666;2024-03-29T13:25:12;23.20;54.60
31038;DHT22;17702;47.590;7.666;2024-03-29T13:27:39;23.20;54.20
31038;DHT22;17702;47.590;7.666;2024-03-29T13:30:06;23.10;53.90
31038;DHT22;17702;47.590;7.666;2024-03-29T13:32:32;23.00;54.30
31038;DHT22;17702;47.590;7.666;2024-03-29T13:34:59;22.90;54.80
31038;DHT22;17702;47.590;7.666;2024-03-29T13:37:24;22.80;55.40
31038;DHT22;17702;47.590;7.666;2024-03-29T13:39:53;22.80;55.40
31038;DHT22;17702;47.590;7.666;2024-03-29T13:42:18;22.80;56.80
31038;DHT22;17702;47.590;7.666;2024-03-29T13:44:44;22.70;55.40
31038;DHT22;17702;47.590;7.666;2024-03-29T13:47:10;22.60;56.50
31038;DHT22;17702;47.590;7.666;2024-03-29T13:49:42;22.60;57.30
31038;DHT22;17702;47.590;7.666;2024-03-29T13:52:11;22.60;57.00
31038;DHT22;17702;47.590;7.666;2024-03-29T13:54:37;22.50;57.30
31038;DHT22;17702;47.590;7.666;2024-03-29T13:57:03;22.50;54.90
31038;DHT22;17702;47.590;7.666;2024-03-29T13:59:32;22.50;55.70
31038;DHT22;17702;47.590;7.666;2024-03-29T14:01:58;22.50;55.50
31038;DHT22;17702;47.590;7.666;2024-03-29T14:04:24;22.50;54.60
31038;DHT22;17702;47.590;7.666;2024-03-29T14:06:50;22.40;54.40
31038;DHT22;17702;47.590;7.666;2024-03-29T14:09:16;22.30;54.60
31038;DHT22;17702;47.590;7.666;2024-03-29T14:11:43;22.30;56.00
31038;DHT22;17702;47.590;7.666;2024-03-29T14:14:09;22.10;53.40
31038;DHT22;17702;47.590;7.666;2024-03-29T14:16:36;21.90;56.40
31038;DHT22;17702;47.590;7.666;2024-03-29T14:19:02;21.80;56.00
31038;DHT22;17702;47.590;7.666;2024-03-29T14:21:29;21.70;55.60
31038;DHT22;17702;47.590;7.666;2024-03-29T14:23:55;21.50;56.90
31038;DHT22;17702;47.590;7.666;2024-03-29T14:26:21;21.50;56.60
31038;DHT22;17702;47.590;7.666;2024-03-29T14:28:47;21.40;59.00
31038;DHT22;17702;47.590;7.666;2024-03-29T14:31:13;21.30;59.40
31038;DHT22;17702;47.590;7.666;2024-03-29T14:33:38;21.30;59.30
31038;DHT22;17702;47.590;7.666;2024-03-29T14:36:04;21.30;61.30
31038;DHT22;17702;47.590;7.666;2024-03-29T14:38:29;21.20;59.80
31038;DHT22;17702;47.590;7.666;2024-03-29T14:40:55;21.10;60.50
31038;DHT22;17702;47.590;7.666;2024-03-29T14:43:21;21.00;60.00
31038;DHT22;17702;47.590;7.666;2024-03-29T14:45:47;20.80;60.10
31038;DHT22;17702;47.590;7.666;2024-03-29T14:48:16;20.70;64.20
31038;DHT22;17702;47.590;7.666;2024-03-29T14:50:42;20.60;64.10
31038;DHT22;17702;47.590;7.666;2024-03-29T14:53:08;20.50;65.00
31038;DHT22;17702;47.590;7.666;2024-03-29T14:55:33;20.40;66.90
31038;DHT22;17702;47.590;7.666;2024-03-29T14:58:01;20.30;65.50
31038;DHT22;17702;47.590;7.666;2024-03-29T15:00:27;20.20;66.40
31038;DHT22;17702;47.590;7.666;2024-03-29T15:02:53;20.20;66.80
31038;DHT22;17702;47.590;7.666;2024-03-29T15:05:19;20.10;67.50
31038;DHT22;17702;47.590;7.666;2024-03-29T15:07:44;20.00;69.40
31038;DHT22;17702;47.590;7.666;2024-03-29T15:10:10;19.90;68.80
31038;DHT22;17702;47.590;7.666;2024-03-29T15:12:36;19.80;68.60
31038;DHT22;17702;47.590;7.666;2024-03-29T15:15:03;19.80;71.70
31038;DHT22;17702;47.590;7.666;2024-03-29T15:17:28;19.60;71.90
31038;DHT22;17702;47.590;7.666;2024-03-29T15:19:54;19.60;72.20
31038;DHT22;17702;47.590;7.666;2024-03-29T15:22:19;19.60;70.70
31038;DHT22;17702;47.590;7.666;2024-03-29T15:24:45;19.50;69.40
31038;DHT22;17702;47.590;7.666;2024-03-29T15:27:10;19.50;70.60